sensor_id;sensor_type;location;lat;lon;timestamp;P1;durP1;ratioP1;P2;durP2;ratioP2
60919;SDS011;59039;52.108;19.942;2023-01-29T00:00:26;15.70;;;8.80;;
60919;SDS011;59039;52.108;19.942;2023-01-29T00:03:02;16.50;;;9.20;;
60919;SDS011;59039;52.108;19.942;2023-01-29T00:05:28;21.80;;;11.30;;
60919;SDS011;59039;52.108;19.942;2023-01-29T00:07:54;25.20;;;12.00;;
60919;SDS011;59039;52.108;19.942;2023-01-29T00:10:20;21.30;;;11.70;;
60919;SDS011;59039;52.108;19.942;2023-01-29T00:13:00;18.20;;;10.30;;
60919;SDS011;59039;52.108;19.942;2023-01-29T00:15:28;22.50;;;11.50;;
60919;SDS011;59039;52.108;19.942;2023-01-29T00:17:59;18.00;;;10.50;;
60919;SDS011;59039;52.108;19.942;2023-01-29T00:20:37;17.00;;;9.80;;
60919;SDS011;59039;52.108;19.942;2023-01-29T00:25:46;20.40;;;10.80;;
60919;SDS011;59039;52.108;19.942;2023-01-29T00:28:19;23.30;;;12.50;;
60919;SDS011;59039;52.108;19.942;2023-01-29T00:30:45;22.50;;;11.20;;
60919;SDS011;59039;52.108;19.942;2023-01-29T00:33:31;20.40;;;11.80;;
60919;SDS011;59039;52.108;19.942;2023-01-29T00:36:03;19.90;;;12.20;;
60919;SDS011;59039;52.108;19.942;2023-01-29T00:38:37;20.80;;;10.90;;
60919;SDS011;59039;52.108;19.942;2023-01-29T00:41:12;20.20;;;11.60;;
60919;SDS011;59039;52.108;19.942;2023-01-29T00:43:49;21.40;;;10.90;;
60919;SDS011;59039;52.108;19.942;2023-01-29T00:46:17;19.30;;;10.80;;
60919;SDS011;59039;52.108;19.942;2023-01-29T00:48:42;22.90;;;11.80;;
60919;SDS011;59039;52.108;19.942;2023-01-29T00:51:20;21.20;;;12.40;;
60919;SDS011;59039;52.108;19.942;2023-01-29T00:53:48;22.60;;;12.40;;
60919;SDS011;59039;52.108;19.942;2023-01-29T00:56:27;22.60;;;11.50;;
60919;SDS011;59039;52.108;19.942;2023-01-29T00:58:59;19.30;;;11.00;;
60919;SDS011;59039;52.108;19.942;2023-01-29T01:01:24;20.30;;;10.60;;
60919;SDS011;59039;52.108;19.942;2023-01-29T01:03:50;21.90;;;10.90;;
60919;SDS011;59039;52.108;19.942;2023-01-29T01:06:24;18.90;;;9.40;;
60919;SDS011;59039;52.108;19.942;2023-01-29T01:09:10;21.70;;;9.40;;
60919;SDS011;59039;52.108;19.942;2023-01-29T01:11:35;20.10;;;10.50;;
60919;SDS011;59039;52.108;19.942;2023-01-29T01:14:01;19.50;;;10.20;;
60919;SDS011;59039;52.108;19.942;2023-01-29T01:16:50;19.50;;;9.90;;
60919;SDS011;59039;52.108;19.942;2023-01-29T01:19:32;19.90;;;9.90;;
60919;SDS011;59039;52.108;19.942;2023-01-29T01:27:28;18.00;;;9.60;;
60919;SDS011;59039;52.108;19.942;2023-01-29T01:29:55;16.60;;;9.30;;
60919;SDS011;59039;52.108;19.942;2023-01-29T01:38:05;16.00;;;8.50;;
60919;SDS011;59039;52.108;19.942;2023-01-29T01:40:33;16.40;;;9.10;;
60919;SDS011;59039;52.108;19.942;2023-01-29T01:46:27;16.20;;;8.30;;
60919;SDS011;59039;52.108;19.942;2023-01-29T01:49:07;15.40;;;8.10;;
60919;SDS011;59039;52.108;19.942;2023-01-29T01:51:34;16.10;;;8.60;;
60919;SDS011;59039;52.108;19.942;2023-01-29T01:54:16;19.20;;;8.90;;
60919;SDS011;59039;52.108;19.942;2023-01-29T01:56:53;16.00;;;7.70;;
60919;SDS011;59039;52.108;19.942;2023-01-29T01:59:24;16.10;;;9.00;;
60919;SDS011;59039;52.108;19.942;2023-01-29T02:01:50;15.30;;;8.30;;
60919;SDS011;59039;52.108;19.942;2023-01-29T02:04:28;16.50;;;9.10;;
60919;SDS011;59039;52.108;19.942;2023-01-29T02:10:18;14.50;;;8.60;;
60919;SDS011;59039;52.108;19.942;2023-01-29T02:12:43;19.00;;;9.40;;
60919;SDS011;59039;52.108;19.942;2023-01-29T02:18:20;14.50;;;8.50;;
60919;SDS011;59039;52.108;19.942;2023-01-29T02:21:29;16.30;;;8.60;;
60919;SDS011;59039;52.108;19.942;2023-01-29T02:24:52;14.50;;;7.70;;
60919;SDS011;59039;52.108;19.942;2023-01-29T02:35:39;16.50;;;8.50;;
60919;SDS011;59039;52.108;19.942;2023-01-29T02:41:04;13.60;;;9.00;;
60919;SDS011;59039;52.108;19.942;2023-01-29T02:43:46;11.70;;;7.80;;
60919;SDS011;59039;52.108;19.942;2023-01-29T02:46:31;12.60;;;8.20;;
60919;SDS011;59039;52.108;19.942;2023-01-29T02:49:26;13.10;;;8.40;;
60919;SDS011;59039;52.108;19.942;2023-01-29T03:00:44;15.50;;;9.40;;
60919;SDS011;59039;52.108;19.942;2023-01-29T03:03:24;18.20;;;8.90;;
60919;SDS011;59039;52.108;19.942;2023-01-29T03:09:00;15.00;;;9.00;;
60919;SDS011;59039;52.108;19.942;2023-01-29T03:11:34;19.00;;;9.70;;
60919;SDS011;59039;52.108;19.942;2023-01-29T03:14:05;19.10;;;10.20;;
60919;SDS011;59039;52.108;19.942;2023-01-29T03:16:52;16.80;;;9.20;;
60919;SDS011;59039;52.108;19.942;2023-01-29T03:22:02;15.20;;;8.20;;
60919;SDS011;59039;52.108;19.942;2023-01-29T03:30:27;15.80;;;8.40;;
60919;SDS011;59039;52.108;19.942;2023-01-29T03:32:55;19.90;;;10.70;;
60919;SDS011;59039;52.108;19.942;2023-01-29T03:35:28;16.70;;;9.60;;
60919;SDS011;59039;52.108;19.942;2023-01-29T03:38:06;18.00;;;9.70;;
60919;SDS011;59039;52.108;19.942;2023-01-29T03:43:32;13.00;;;7.50;;
60919;SDS011;59039;52.108;19.942;2023-01-29T03:55:35;17.10;;;9.50;;
60919;SDS011;59039;52.108;19.942;2023-01-29T04:01:39;14.80;;;9.50;;
60919;SDS011;59039;52.108;19.942;2023-01-29T04:10:08;20.00;;;10.60;;
60919;SDS011;59039;52.108;19.942;2023-01-29T04:18:58;20.30;;;10.90;;
60919;SDS011;59039;52.108;19.942;2023-01-29T04:21:30;19.70;;;11.80;;
60919;SDS011;59039;52.108;19.942;2023-01-29T04:26:57;18.90;;;10.50;;
60919;SDS011;59039;52.108;19.942;2023-01-29T04:29:38;28.80;;;14.20;;
60919;SDS011;59039;52.108;19.942;2023-01-29T04:34:59;26.80;;;13.50;;
60919;SDS011;59039;52.108;19.942;2023-01-29T04:40:24;33.70;;;14.70;;
60919;SDS011;59039;52.108;19.942;2023-01-29T04:46:18;33.20;;;12.40;;
60919;SDS011;59039;52.108;19.942;2023-01-29T05:00:28;24.60;;;13.40;;
60919;SDS011;59039;52.108;19.942;2023-01-29T05:03:01;19.40;;;11.40;;
60919;SDS011;59039;52.108;19.942;2023-01-29T05:05:30;20.50;;;12.50;;
60919;SDS011;59039;52.108;19.942;2023-01-29T05:08:21;21.00;;;11.10;;
60919;SDS011;59039;52.108;19.942;2023-01-29T05:10:51;20.00;;;11.60;;
60919;SDS011;59039;52.108;19.942;2023-01-29T05:13:21;21.40;;;11.50;;
60919;SDS011;59039;52.108;19.942;2023-01-29T05:15:59;16.90;;;10.40;;
60919;SDS011;59039;52.108;19.942;2023-01-29T05:21:28;17.30;;;10.10;;
60919;SDS011;59039;52.108;19.942;2023-01-29T05:26:42;18.20;;;11.10;;
60919;SDS011;59039;52.108;19.942;2023-01-29T05:29:11;20.40;;;12.50;;
60919;SDS011;59039;52.108;19.942;2023-01-29T05:31:38;23.70;;;12.40;;
60919;SDS011;59039;52.108;19.942;2023-01-29T05:34:04;18.00;;;10.40;;
60919;SDS011;59039;52.108;19.942;2023-01-29T05:39:28;19.70;;;12.20;;
60919;SDS011;59039;52.108;19.942;2023-01-29T05:41:56;22.60;;;12.00;;
60919;SDS011;59039;52.108;19.942;2023-01-29T05:44:33;29.40;;;16.00;;
60919;SDS011;59039;52.108;19.942;2023-01-29T05:47:09;29.10;;;16.90;;
60919;SDS011;59039;52.108;19.942;2023-01-29T05:49:55;23.80;;;14.30;;
60919;SDS011;59039;52.108;19.942;2023-01-29T05:52:23;29.90;;;14.60;;
60919;SDS011;59039;52.108;19.942;2023-01-29T05:55:09;26.30;;;15.20;;
60919;SDS011;59039;52.108;19.942;2023-01-29T05:57:47;24.10;;;13.90;;
60919;SDS011;59039;52.108;19.942;2023-01-29T06:00:32;26.80;;;14.00;;
60919;SDS011;59039;52.108;19.942;2023-01-29T06:03:00;21.30;;;13.00;;
60919;SDS011;59039;52.108;19.942;2023-01-29T06:05:46;27.30;;;14.30;;
60919;SDS011;59039;52.108;19.942;2023-01-29T06:08:12;25.40;;;14.60;;
60919;SDS011;59039;52.108;19.942;2023-01-29T06:11:07;31.40;;;14.50;;
60919;SDS011;59039;52.108;19.942;2023-01-29T06:13:35;25.30;;;13.90;;
60919;SDS011;59039;52.108;19.942;2023-01-29T06:16:11;28.40;;;13.60;;
60919;SDS011;59039;52.108;19.942;2023-01-29T06:18:40;26.30;;;13.00;;
60919;SDS011;59039;52.108;19.942;2023-01-29T06:21:07;24.40;;;13.00;;
60919;SDS011;59039;52.108;19.942;2023-01-29T06:23:37;23.60;;;14.00;;
60919;SDS011;59039;52.108;19.942;2023-01-29T06:26:22;25.60;;;13.20;;
60919;SDS011;59039;52.108;19.942;2023-01-29T06:28:58;29.00;;;15.10;;
60919;SDS011;59039;52.108;19.942;2023-01-29T06:31:45;23.20;;;12.70;;
60919;SDS011;59039;52.108;19.942;2023-01-29T06:34:11;20.40;;;10.50;;
60919;SDS011;59039;52.108;19.942;2023-01-29T06:39:14;26.00;;;12.60;;
60919;SDS011;59039;52.108;19.942;2023-01-29T06:41:42;26.90;;;13.50;;
60919;SDS011;59039;52.108;19.942;2023-01-29T06:44:08;50.40;;;21.20;;
60919;SDS011;59039;52.108;19.942;2023-01-29T06:46:33;49.60;;;20.90;;
60919;SDS011;59039;52.108;19.942;2023-01-29T06:49:02;37.40;;;16.40;;
60919;SDS011;59039;52.108;19.942;2023-01-29T06:51:28;41.30;;;16.70;;
60919;SDS011;59039;52.108;19.942;2023-01-29T06:54:14;38.30;;;17.10;;
60919;SDS011;59039;52.108;19.942;2023-01-29T06:56:39;40.30;;;20.00;;
60919;SDS011;59039;52.108;19.942;2023-01-29T06:59:04;41.60;;;19.20;;
60919;SDS011;59039;52.108;19.942;2023-01-29T07:01:30;33.80;;;17.90;;
60919;SDS011;59039;52.108;19.942;2023-01-29T07:03:55;27.20;;;13.90;;
60919;SDS011;59039;52.108;19.942;2023-01-29T07:09:19;28.20;;;14.40;;
60919;SDS011;59039;52.108;19.942;2023-01-29T07:11:50;34.60;;;16.00;;
60919;SDS011;59039;52.108;19.942;2023-01-29T07:14:39;35.70;;;17.00;;
60919;SDS011;59039;52.108;19.942;2023-01-29T07:17:04;31.50;;;15.30;;
60919;SDS011;59039;52.108;19.942;2023-01-29T07:19:30;36.20;;;17.30;;
60919;SDS011;59039;52.108;19.942;2023-01-29T07:22:15;34.20;;;16.40;;
60919;SDS011;59039;52.108;19.942;2023-01-29T07:24:43;32.30;;;16.80;;
60919;SDS011;59039;52.108;19.942;2023-01-29T07:27:31;26.80;;;14.20;;
60919;SDS011;59039;52.108;19.942;2023-01-29T07:29:57;25.60;;;12.80;;
60919;SDS011;59039;52.108;19.942;2023-01-29T07:32:23;33.90;;;17.20;;
60919;SDS011;59039;52.108;19.942;2023-01-29T07:34:48;37.30;;;18.50;;
60919;SDS011;59039;52.108;19.942;2023-01-29T07:37:13;33.20;;;17.50;;
60919;SDS011;59039;52.108;19.942;2023-01-29T07:39:39;142.10;;;50.70;;
60919;SDS011;59039;52.108;19.942;2023-01-29T07:42:04;169.30;;;56.90;;
60919;SDS011;59039;52.108;19.942;2023-01-29T07:44:30;60.40;;;24.80;;
60919;SDS011;59039;52.108;19.942;2023-01-29T07:46:55;33.30;;;16.50;;
60919;SDS011;59039;52.108;19.942;2023-01-29T07:49:29;33.60;;;15.50;;
60919;SDS011;59039;52.108;19.942;2023-01-29T07:51:58;37.20;;;14.90;;
60919;SDS011;59039;52.108;19.942;2023-01-29T07:54:29;23.50;;;12.70;;
60919;SDS011;59039;52.108;19.942;2023-01-29T07:57:20;30.60;;;14.20;;
60919;SDS011;59039;52.108;19.942;2023-01-29T07:59:51;29.40;;;16.00;;
60919;SDS011;59039;52.108;19.942;2023-01-29T08:02:16;38.00;;;19.00;;
60919;SDS011;59039;52.108;19.942;2023-01-29T08:04:51;43.60;;;20.50;;
60919;SDS011;59039;52.108;19.942;2023-01-29T08:07:16;33.20;;;16.70;;
60919;SDS011;59039;52.108;19.942;2023-01-29T08:09:42;39.00;;;18.40;;
60919;SDS011;59039;52.108;19.942;2023-01-29T08:12:09;33.80;;;15.00;;
60919;SDS011;59039;52.108;19.942;2023-01-29T08:14:38;26.40;;;14.20;;
60919;SDS011;59039;52.108;19.942;2023-01-29T08:17:03;25.50;;;13.40;;
60919;SDS011;59039;52.108;19.942;2023-01-29T08:19:37;22.30;;;11.50;;
60919;SDS011;59039;52.108;19.942;2023-01-29T08:22:12;24.80;;;13.30;;
60919;SDS011;59039;52.108;19.942;2023-01-29T08:27:17;21.70;;;11.10;;
60919;SDS011;59039;52.108;19.942;2023-01-29T08:29:43;24.00;;;11.70;;
60919;SDS011;59039;52.108;19.942;2023-01-29T08:32:09;25.20;;;13.20;;
60919;SDS011;59039;52.108;19.942;2023-01-29T08:34:34;29.20;;;13.70;;
60919;SDS011;59039;52.108;19.942;2023-01-29T08:37:00;21.40;;;12.40;;
60919;SDS011;59039;52.108;19.942;2023-01-29T08:39:25;25.20;;;13.10;;
60919;SDS011;59039;52.108;19.942;2023-01-29T08:41:51;29.00;;;13.90;;
60919;SDS011;59039;52.108;19.942;2023-01-29T08:44:16;25.40;;;13.60;;
60919;SDS011;59039;52.108;19.942;2023-01-29T08:46:47;24.80;;;12.00;;
60919;SDS011;59039;52.108;19.942;2023-01-29T08:49:18;19.10;;;10.90;;
60919;SDS011;59039;52.108;19.942;2023-01-29T08:51:46;16.90;;;9.70;;
60919;SDS011;59039;52.108;19.942;2023-01-29T08:54:12;18.30;;;10.80;;
60919;SDS011;59039;52.108;19.942;2023-01-29T08:56:39;25.50;;;13.40;;
60919;SDS011;59039;52.108;19.942;2023-01-29T08:59:05;20.20;;;11.40;;
60919;SDS011;59039;52.108;19.942;2023-01-29T09:01:30;23.90;;;14.20;;
60919;SDS011;59039;52.108;19.942;2023-01-29T09:06:42;24.30;;;14.00;;
60919;SDS011;59039;52.108;19.942;2023-01-29T09:09:07;21.90;;;12.10;;
60919;SDS011;59039;52.108;19.942;2023-01-29T09:11:35;21.10;;;11.80;;
60919;SDS011;59039;52.108;19.942;2023-01-29T09:14:03;19.80;;;12.40;;
60919;SDS011;59039;52.108;19.942;2023-01-29T09:16:29;26.00;;;13.80;;
60919;SDS011;59039;52.108;19.942;2023-01-29T09:18:54;23.30;;;13.50;;
60919;SDS011;59039;52.108;19.942;2023-01-29T09:21:25;25.80;;;14.00;;
60919;SDS011;59039;52.108;19.942;2023-01-29T09:24:01;24.50;;;14.50;;
60919;SDS011;59039;52.108;19.942;2023-01-29T09:26:47;28.00;;;16.80;;
60919;SDS011;59039;52.108;19.942;2023-01-29T09:29:16;30.90;;;18.00;;
60919;SDS011;59039;52.108;19.942;2023-01-29T09:31:41;40.40;;;17.10;;
60919;SDS011;59039;52.108;19.942;2023-01-29T09:34:06;38.90;;;18.70;;
60919;SDS011;59039;52.108;19.942;2023-01-29T09:36:32;43.40;;;18.80;;
60919;SDS011;59039;52.108;19.942;2023-01-29T09:38:57;35.30;;;16.20;;
60919;SDS011;59039;52.108;19.942;2023-01-29T09:47:26;36.80;;;17.60;;
60919;SDS011;59039;52.108;19.942;2023-01-29T09:49:54;45.40;;;19.80;;
60919;SDS011;59039;52.108;19.942;2023-01-29T09:52:26;36.40;;;17.70;;
60919;SDS011;59039;52.108;19.942;2023-01-29T09:58:37;26.80;;;14.30;;
60919;SDS011;59039;52.108;19.942;2023-01-29T10:00:43;42.30;;;21.60;;
60919;SDS011;59039;52.108;19.942;2023-01-29T10:03:28;40.70;;;19.90;;
60919;SDS011;59039;52.108;19.942;2023-01-29T10:14:19;38.60;;;19.20;;
60919;SDS011;59039;52.108;19.942;2023-01-29T10:22:17;30.70;;;16.80;;
60919;SDS011;59039;52.108;19.942;2023-01-29T10:25:25;30.10;;;14.40;;
60919;SDS011;59039;52.108;19.942;2023-01-29T10:27:54;31.10;;;16.10;;
60919;SDS011;59039;52.108;19.942;2023-01-29T10:30:32;34.00;;;18.20;;
60919;SDS011;59039;52.108;19.942;2023-01-29T10:33:05;34.90;;;17.60;;
60919;SDS011;59039;52.108;19.942;2023-01-29T10:35:47;29.90;;;16.90;;
60919;SDS011;59039;52.108;19.942;2023-01-29T10:38:37;36.90;;;17.10;;
60919;SDS011;59039;52.108;19.942;2023-01-29T10:50:10;32.30;;;16.20;;
60919;SDS011;59039;52.108;19.942;2023-01-29T10:53:03;23.80;;;14.70;;
60919;SDS011;59039;52.108;19.942;2023-01-29T10:58:40;24.60;;;14.40;;
60919;SDS011;59039;52.108;19.942;2023-01-29T11:01:14;29.30;;;16.10;;
60919;SDS011;59039;52.108;19.942;2023-01-29T11:03:40;32.80;;;17.70;;
60919;SDS011;59039;52.108;19.942;2023-01-29T11:12:03;32.90;;;17.90;;
60919;SDS011;59039;52.108;19.942;2023-01-29T11:14:37;37.30;;;19.30;;
60919;SDS011;59039;52.108;19.942;2023-01-29T11:17:23;37.60;;;18.50;;
60919;SDS011;59039;52.108;19.942;2023-01-29T11:19:50;41.10;;;19.70;;
60919;SDS011;59039;52.108;19.942;2023-01-29T11:22:19;39.50;;;21.30;;
60919;SDS011;59039;52.108;19.942;2023-01-29T11:25:07;41.70;;;20.90;;
60919;SDS011;59039;52.108;19.942;2023-01-29T11:27:39;37.80;;;21.10;;
60919;SDS011;59039;52.108;19.942;2023-01-29T11:30:24;35.20;;;19.00;;
60919;SDS011;59039;52.108;19.942;2023-01-29T11:33:37;28.00;;;17.00;;
60919;SDS011;59039;52.108;19.942;2023-01-29T11:35:44;30.90;;;18.20;;
60919;SDS011;59039;52.108;19.942;2023-01-29T11:38:26;37.80;;;19.90;;
60919;SDS011;59039;52.108;19.942;2023-01-29T11:41:15;37.30;;;17.20;;
60919;SDS011;59039;52.108;19.942;2023-01-29T11:43:40;29.50;;;16.60;;
60919;SDS011;59039;52.108;19.942;2023-01-29T11:46:12;33.40;;;19.60;;
60919;SDS011;59039;52.108;19.942;2023-01-29T11:48:51;36.20;;;21.40;;
60919;SDS011;59039;52.108;19.942;2023-01-29T11:51:26;43.50;;;23.50;;
60919;SDS011;59039;52.108;19.942;2023-01-29T11:53:58;45.70;;;24.20;;
60919;SDS011;59039;52.108;19.942;2023-01-29T11:56:41;44.40;;;23.20;;
60919;SDS011;59039;52.108;19.942;2023-01-29T12:02:17;44.70;;;23.00;;
60919;SDS011;59039;52.108;19.942;2023-01-29T12:04:51;46.20;;;24.10;;
60919;SDS011;59039;52.108;19.942;2023-01-29T12:07:43;44.00;;;23.00;;
60919;SDS011;59039;52.108;19.942;2023-01-29T12:15:35;36.60;;;19.10;;
60919;SDS011;59039;52.108;19.942;2023-01-29T12:20:49;33.80;;;18.50;;
60919;SDS011;59039;52.108;19.942;2023-01-29T12:32:36;35.70;;;18.40;;
60919;SDS011;59039;52.108;19.942;2023-01-29T12:35:28;32.40;;;17.80;;
60919;SDS011;59039;52.108;19.942;2023-01-29T12:38:05;36.00;;;18.50;;
60919;SDS011;59039;52.108;19.942;2023-01-29T12:43:13;35.20;;;19.50;;
60919;SDS011;59039;52.108;19.942;2023-01-29T12:46:10;34.80;;;18.40;;
60919;SDS011;59039;52.108;19.942;2023-01-29T12:49:06;43.70;;;20.60;;
60919;SDS011;59039;52.108;19.942;2023-01-29T12:51:43;38.60;;;20.30;;
60919;SDS011;59039;52.108;19.942;2023-01-29T12:54:16;39.20;;;19.30;;
60919;SDS011;59039;52.108;19.942;2023-01-29T12:57:09;31.10;;;16.00;;
60919;SDS011;59039;52.108;19.942;2023-01-29T12:59:42;36.30;;;20.00;;
60919;SDS011;59039;52.108;19.942;2023-01-29T13:08:15;31.50;;;17.10;;
60919;SDS011;59039;52.108;19.942;2023-01-29T13:10:49;41.10;;;20.20;;
60919;SDS011;59039;52.108;19.942;2023-01-29T13:16:00;39.70;;;19.80;;
60919;SDS011;59039;52.108;19.942;2023-01-29T13:18:46;48.70;;;22.40;;
60919;SDS011;59039;52.108;19.942;2023-01-29T13:21:20;38.70;;;20.60;;
60919;SDS011;59039;52.108;19.942;2023-01-29T13:23:50;42.80;;;20.70;;
60919;SDS011;59039;52.108;19.942;2023-01-29T13:26:27;39.10;;;21.00;;
60919;SDS011;59039;52.108;19.942;2023-01-29T13:28:56;49.40;;;25.00;;
60919;SDS011;59039;52.108;19.942;2023-01-29T13:31:24;49.60;;;24.20;;
60919;SDS011;59039;52.108;19.942;2023-01-29T13:34:19;50.60;;;24.90;;
60919;SDS011;59039;52.108;19.942;2023-01-29T13:39:56;57.20;;;25.50;;
60919;SDS011;59039;52.108;19.942;2023-01-29T13:48:27;54.80;;;24.30;;
60919;SDS011;59039;52.108;19.942;2023-01-29T13:51:20;50.40;;;23.50;;
60919;SDS011;59039;52.108;19.942;2023-01-29T13:53:56;50.90;;;25.20;;
60919;SDS011;59039;52.108;19.942;2023-01-29T14:02:24;54.90;;;24.50;;
60919;SDS011;59039;52.108;19.942;2023-01-29T14:05:31;54.00;;;24.40;;
60919;SDS011;59039;52.108;19.942;2023-01-29T14:08:35;50.70;;;25.10;;
60919;SDS011;59039;52.108;19.942;2023-01-29T14:17:20;57.70;;;25.80;;
60919;SDS011;59039;52.108;19.942;2023-01-29T14:19:51;55.80;;;24.30;;
60919;SDS011;59039;52.108;19.942;2023-01-29T14:22:19;56.60;;;26.80;;
60919;SDS011;59039;52.108;19.942;2023-01-29T14:27:57;61.10;;;26.10;;
60919;SDS011;59039;52.108;19.942;2023-01-29T14:33:56;74.50;;;31.70;;
60919;SDS011;59039;52.108;19.942;2023-01-29T14:36:40;69.90;;;30.90;;
60919;SDS011;59039;52.108;19.942;2023-01-29T14:51:07;58.80;;;28.80;;
60919;SDS011;59039;52.108;19.942;2023-01-29T14:53:43;54.20;;;28.80;;
60919;SDS011;59039;52.108;19.942;2023-01-29T14:59:32;58.20;;;29.00;;
60919;SDS011;59039;52.108;19.942;2023-01-29T15:02:21;56.30;;;30.00;;
60919;SDS011;59039;52.108;19.942;2023-01-29T15:07:45;54.00;;;26.70;;
60919;SDS011;59039;52.108;19.942;2023-01-29T15:16:01;66.20;;;27.60;;
60919;SDS011;59039;52.108;19.942;2023-01-29T15:18:37;62.00;;;28.90;;
60919;SDS011;59039;52.108;19.942;2023-01-29T15:21:11;54.50;;;28.60;;
60919;SDS011;59039;52.108;19.942;2023-01-29T15:29:30;73.40;;;31.10;;
60919;SDS011;59039;52.108;19.942;2023-01-29T15:32:23;70.60;;;33.10;;
60919;SDS011;59039;52.108;19.942;2023-01-29T15:37:56;74.40;;;34.10;;
60919;SDS011;59039;52.108;19.942;2023-01-29T15:40:55;68.90;;;31.80;;
60919;SDS011;59039;52.108;19.942;2023-01-29T15:49:20;60.40;;;29.90;;
60919;SDS011;59039;52.108;19.942;2023-01-29T15:52:15;70.90;;;31.10;;
60919;SDS011;59039;52.108;19.942;2023-01-29T15:54:50;79.70;;;32.80;;
60919;SDS011;59039;52.108;19.942;2023-01-29T15:57:20;84.00;;;35.70;;
60919;SDS011;59039;52.108;19.942;2023-01-29T15:59:56;76.10;;;32.00;;
60919;SDS011;59039;52.108;19.942;2023-01-29T16:02:36;61.10;;;27.70;;
60919;SDS011;59039;52.108;19.942;2023-01-29T16:05:06;71.20;;;31.70;;
60919;SDS011;59039;52.108;19.942;2023-01-29T16:07:58;64.50;;;30.90;;
60919;SDS011;59039;52.108;19.942;2023-01-29T16:18:43;64.00;;;31.40;;
60919;SDS011;59039;52.108;19.942;2023-01-29T16:24:08;77.50;;;33.80;;
60919;SDS011;59039;52.108;19.942;2023-01-29T16:27:11;78.80;;;34.20;;
60919;SDS011;59039;52.108;19.942;2023-01-29T16:29:50;66.50;;;32.00;;
60919;SDS011;59039;52.108;19.942;2023-01-29T16:32:38;66.70;;;31.70;;
60919;SDS011;59039;52.108;19.942;2023-01-29T16:35:23;72.00;;;31.90;;
60919;SDS011;59039;52.108;19.942;2023-01-29T16:38:34;79.10;;;32.70;;
60919;SDS011;59039;52.108;19.942;2023-01-29T16:44:28;69.40;;;31.40;;
60919;SDS011;59039;52.108;19.942;2023-01-29T16:56:02;118.40;;;41.90;;
60919;SDS011;59039;52.108;19.942;2023-01-29T16:58:33;125.10;;;42.30;;
60919;SDS011;59039;52.108;19.942;2023-01-29T17:01:19;144.00;;;49.20;;
60919;SDS011;59039;52.108;19.942;2023-01-29T17:04:09;145.80;;;46.50;;
60919;SDS011;59039;52.108;19.942;2023-01-29T17:06:47;129.30;;;46.40;;
60919;SDS011;59039;52.108;19.942;2023-01-29T17:12:26;112.40;;;43.60;;
60919;SDS011;59039;52.108;19.942;2023-01-29T17:18:23;94.20;;;40.00;;
60919;SDS011;59039;52.108;19.942;2023-01-29T17:21:01;91.10;;;36.40;;
60919;SDS011;59039;52.108;19.942;2023-01-29T17:23:38;87.10;;;37.60;;
60919;SDS011;59039;52.108;19.942;2023-01-29T17:26:07;84.70;;;35.20;;
60919;SDS011;59039;52.108;19.942;2023-01-29T17:28:37;77.10;;;34.50;;
60919;SDS011;59039;52.108;19.942;2023-01-29T17:31:29;81.20;;;34.20;;
60919;SDS011;59039;52.108;19.942;2023-01-29T17:36:44;75.00;;;33.30;;
60919;SDS011;59039;52.108;19.942;2023-01-29T17:42:18;68.90;;;31.00;;
60919;SDS011;59039;52.108;19.942;2023-01-29T17:44:55;61.00;;;29.60;;
60919;SDS011;59039;52.108;19.942;2023-01-29T17:47:33;71.70;;;28.80;;
60919;SDS011;59039;52.108;19.942;2023-01-29T17:50:23;61.50;;;27.50;;
60919;SDS011;59039;52.108;19.942;2023-01-29T17:52:51;59.00;;;27.30;;
60919;SDS011;59039;52.108;19.942;2023-01-29T17:55:19;58.20;;;26.90;;
60919;SDS011;59039;52.108;19.942;2023-01-29T17:57:50;63.70;;;29.00;;
60919;SDS011;59039;52.108;19.942;2023-01-29T18:00:44;65.10;;;28.90;;
60919;SDS011;59039;52.108;19.942;2023-01-29T18:03:12;62.00;;;27.90;;
60919;SDS011;59039;52.108;19.942;2023-01-29T18:05:59;67.80;;;30.80;;
60919;SDS011;59039;52.108;19.942;2023-01-29T18:08:35;53.70;;;25.50;;
60919;SDS011;59039;52.108;19.942;2023-01-29T18:11:11;58.70;;;27.70;;
60919;SDS011;59039;52.108;19.942;2023-01-29T18:16:39;66.20;;;33.30;;
60919;SDS011;59039;52.108;19.942;2023-01-29T18:22:06;65.10;;;29.80;;
60919;SDS011;59039;52.108;19.942;2023-01-29T18:27:32;67.20;;;28.70;;
60919;SDS011;59039;52.108;19.942;2023-01-29T18:29:58;67.80;;;30.00;;
60919;SDS011;59039;52.108;19.942;2023-01-29T18:32:26;72.60;;;33.80;;
60919;SDS011;59039;52.108;19.942;2023-01-29T18:35:03;76.30;;;32.00;;
60919;SDS011;59039;52.108;19.942;2023-01-29T18:37:48;70.40;;;30.40;;
60919;SDS011;59039;52.108;19.942;2023-01-29T18:40:34;69.60;;;28.50;;
60919;SDS011;59039;52.108;19.942;2023-01-29T18:43:20;88.60;;;33.90;;
60919;SDS011;59039;52.108;19.942;2023-01-29T18:45:48;79.30;;;33.00;;
60919;SDS011;59039;52.108;19.942;2023-01-29T18:48:28;54.60;;;25.80;;
60919;SDS011;59039;52.108;19.942;2023-01-29T18:50:56;66.00;;;28.80;;
60919;SDS011;59039;52.108;19.942;2023-01-29T18:56:08;61.70;;;30.40;;
60919;SDS011;59039;52.108;19.942;2023-01-29T18:58:57;62.60;;;28.60;;
60919;SDS011;59039;52.108;19.942;2023-01-29T19:01:23;61.90;;;28.40;;
60919;SDS011;59039;52.108;19.942;2023-01-29T19:04:09;66.10;;;30.20;;
60919;SDS011;59039;52.108;19.942;2023-01-29T19:07:02;66.10;;;30.40;;
60919;SDS011;59039;52.108;19.942;2023-01-29T19:12:32;64.50;;;27.40;;
60919;SDS011;59039;52.108;19.942;2023-01-29T19:15:00;71.60;;;29.80;;
60919;SDS011;59039;52.108;19.942;2023-01-29T19:17:33;71.20;;;29.10;;
60919;SDS011;59039;52.108;19.942;2023-01-29T19:20:19;70.00;;;28.60;;
60919;SDS011;59039;52.108;19.942;2023-01-29T19:23:16;80.50;;;34.30;;
60919;SDS011;59039;52.108;19.942;2023-01-29T19:34:57;65.40;;;29.00;;
60919;SDS011;59039;52.108;19.942;2023-01-29T19:43:14;59.80;;;27.70;;
60919;SDS011;59039;52.108;19.942;2023-01-29T19:45:40;59.80;;;26.60;;
60919;SDS011;59039;52.108;19.942;2023-01-29T19:48:28;59.50;;;26.20;;
60919;SDS011;59039;52.108;19.942;2023-01-29T19:51:07;64.50;;;26.30;;
60919;SDS011;59039;52.108;19.942;2023-01-29T19:53:39;66.10;;;26.10;;
60919;SDS011;59039;52.108;19.942;2023-01-29T19:56:11;71.00;;;28.90;;
60919;SDS011;59039;52.108;19.942;2023-01-29T19:58:56;61.10;;;28.60;;
60919;SDS011;59039;52.108;19.942;2023-01-29T20:04:00;60.80;;;29.70;;
60919;SDS011;59039;52.108;19.942;2023-01-29T20:06:26;58.50;;;27.80;;
60919;SDS011;59039;52.108;19.942;2023-01-29T20:08:55;63.80;;;28.30;;
60919;SDS011;59039;52.108;19.942;2023-01-29T20:11:21;74.20;;;31.10;;
60919;SDS011;59039;52.108;19.942;2023-01-29T20:13:47;54.80;;;25.90;;
60919;SDS011;59039;52.108;19.942;2023-01-29T20:16:14;85.40;;;31.70;;
60919;SDS011;59039;52.108;19.942;2023-01-29T20:18:43;75.50;;;32.60;;
60919;SDS011;59039;52.108;19.942;2023-01-29T20:21:09;73.20;;;30.10;;
60919;SDS011;59039;52.108;19.942;2023-01-29T20:23:37;89.80;;;35.20;;
60919;SDS011;59039;52.108;19.942;2023-01-29T20:26:03;75.20;;;31.40;;